sensor_id;sensor_type;location;lat;lon;timestamp;P1;durP1;ratioP1;P2;durP2;ratioP2
38220;SDS011;24023;51.280;7.148;2022-12-07T00:00:11;18.5;;;15.3;;
38220;SDS011;24023;51.280;7.148;2022-12-07T00:05:06;18.7;;;16.9;;
38220;SDS011;24023;51.280;7.148;2022-12-07T00:10:08;18.7;;;16.9;;
38220;SDS011;24023;51.280;7.148;2022-12-07T00:15:07;19.2;;;17.3;;
38220;SDS011;24023;51.280;7.148;2022-12-07T00:20:08;19.2;;;17.3;;
38220;SDS011;24023;51.280;7.148;2022-12-07T00:25:06;19.2;;;17.3;;
38220;SDS011;24023;51.280;7.148;2022-12-07T00:30:09;20.3;;;18.3;;
38220;SDS011;24023;51.280;7.148;2022-12-07T00:35:06;20.3;;;18.3;;
38220;SDS011;24023;51.280;7.148;2022-12-07T00:40:08;21.1;;;18.9;;
38220;SDS011;24023;51.280;7.148;2022-12-07T00:45:08;21.1;;;18.9;;
38220;SDS011;24023;51.280;7.148;2022-12-07T00:50:07;21.1;;;18.9;;
38220;SDS011;24023;51.280;7.148;2022-12-07T00:55:06;22.2;;;19.8;;
38220;SDS011;24023;51.280;7.148;2022-12-07T01:00:10;22.2;;;19.8;;
38220;SDS011;24023;51.280;7.148;2022-12-07T01:05:07;21.6;;;19.4;;
38220;SDS011;24023;51.280;7.148;2022-12-07T01:10:08;21.6;;;19.4;;
38220;SDS011;24023;51.280;7.148;2022-12-07T01:15:08;21.6;;;17.1;;
38220;SDS011;24023;51.280;7.148;2022-12-07T01:20:08;21.6;;;17.1;;
38220;SDS011;24023;51.280;7.148;2022-12-07T01:25:06;21.2;;;18.9;;
38220;SDS011;24023;51.280;7.148;2022-12-07T01:30:09;21.2;;;18.9;;
38220;SDS011;24023;51.280;7.148;2022-12-07T01:35:06;21.1;;;19.0;;
38220;SDS011;24023;51.280;7.148;2022-12-07T01:40:09;21.1;;;19.0;;
38220;SDS011;24023;51.280;7.148;2022-12-07T01:45:42;21.1;;;19.0;;
38220;SDS011;24023;51.280;7.148;2022-12-07T01:50:08;20.7;;;18.6;;
38220;SDS011;24023;51.280;7.148;2022-12-07T01:55:07;29.6;;;19.8;;
38220;SDS011;24023;51.280;7.148;2022-12-07T02:00:11;29.6;;;19.8;;
38220;SDS011;24023;51.280;7.148;2022-12-07T02:05:06;24.6;;;18.7;;
38220;SDS011;24023;51.280;7.148;2022-12-07T02:10:12;24.6;;;18.7;;
38220;SDS011;24023;51.280;7.148;2022-12-07T02:15:07;30.4;;;19.2;;
38220;SDS011;24023;51.280;7.148;2022-12-07T02:20:15;30.4;;;19.2;;
38220;SDS011;24023;51.280;7.148;2022-12-07T02:25:07;21.5;;;18.7;;
38220;SDS011;24023;51.280;7.148;2022-12-07T02:30:09;21.5;;;18.7;;
38220;SDS011;24023;51.280;7.148;2022-12-07T02:35:07;22.0;;;19.7;;
38220;SDS011;24023;51.280;7.148;2022-12-07T02:40:09;22.0;;;19.7;;
38220;SDS011;24023;51.280;7.148;2022-12-07T02:45:09;19.4;;;17.6;;
38220;SDS011;24023;51.280;7.148;2022-12-07T02:50:08;19.4;;;17.6;;
38220;SDS011;24023;51.280;7.148;2022-12-07T02:55:06;20.7;;;18.7;;
38220;SDS011;24023;51.280;7.148;2022-12-07T03:00:11;20.7;;;18.7;;
38220;SDS011;24023;51.280;7.148;2022-12-07T03:05:12;20.7;;;18.7;;
38220;SDS011;24023;51.280;7.148;2022-12-07T03:10:08;20.0;;;18.2;;
38220;SDS011;24023;51.280;7.148;2022-12-07T03:15:07;20.0;;;18.2;;
38220;SDS011;24023;51.280;7.148;2022-12-07T03:20:09;18.8;;;16.9;;
38220;SDS011;24023;51.280;7.148;2022-12-07T03:25:07;18.8;;;16.9;;
38220;SDS011;24023;51.280;7.148;2022-12-07T03:30:10;18.8;;;16.9;;
38220;SDS011;24023;51.280;7.148;2022-12-07T03:35:07;17.5;;;15.9;;
38220;SDS011;24023;51.280;7.148;2022-12-07T03:40:08;17.5;;;15.9;;
38220;SDS011;24023;51.280;7.148;2022-12-07T03:45:10;16.5;;;14.9;;
38220;SDS011;24023;51.280;7.148;2022-12-07T03:50:09;16.5;;;14.9;;
38220;SDS011;24023;51.280;7.148;2022-12-07T03:55:08;17.2;;;15.5;;
38220;SDS011;24023;51.280;7.148;2022-12-07T04:00:10;17.2;;;15.5;;
38220;SDS011;24023;51.280;7.148;2022-12-07T04:05:08;17.2;;;15.5;;
38220;SDS011;24023;51.280;7.148;2022-12-07T04:10:08;16.4;;;14.8;;
38220;SDS011;24023;51.280;7.148;2022-12-07T04:15:08;16.4;;;14.8;;
38220;SDS011;24023;51.280;7.148;2022-12-07T04:20:08;14.9;;;13.4;;
38220;SDS011;24023;51.280;7.148;2022-12-07T04:25:06;14.9;;;13.4;;
38220;SDS011;24023;51.280;7.148;2022-12-07T04:30:09;14.9;;;13.4;;
38220;SDS011;24023;51.280;7.148;2022-12-07T04:35:07;13.1;;;11.8;;
38220;SDS011;24023;51.280;7.148;2022-12-07T04:40:08;13.1;;;11.8;;
38220;SDS011;24023;51.280;7.148;2022-12-07T04:45:09;11.4;;;10.2;;
38220;SDS011;24023;51.280;7.148;2022-12-07T04:50:08;11.4;;;10.2;;
38220;SDS011;24023;51.280;7.148;2022-12-07T04:55:06;10.4;;;9.3;;
38220;SDS011;24023;51.280;7.148;2022-12-07T05:00:11;10.4;;;9.3;;
38220;SDS011;24023;51.280;7.148;2022-12-07T05:05:06;8.5;;;7.7;;
38220;SDS011;24023;51.280;7.148;2022-12-07T05:10:08;8.5;;;7.7;;
38220;SDS011;24023;51.280;7.148;2022-12-07T05:15:07;9.4;;;8.3;;
38220;SDS011;24023;51.280;7.148;2022-12-07T05:20:08;9.4;;;8.3;;
38220;SDS011;24023;51.280;7.148;2022-12-07T05:25:08;11.4;;;10.3;;
38220;SDS011;24023;51.280;7.148;2022-12-07T05:30:10;11.4;;;10.3;;
38220;SDS011;24023;51.280;7.148;2022-12-07T05:35:06;13.9;;;12.6;;
38220;SDS011;24023;51.280;7.148;2022-12-07T05:40:08;13.9;;;12.6;;
38220;SDS011;24023;51.280;7.148;2022-12-07T05:45:10;14.3;;;12.7;;
38220;SDS011;24023;51.280;7.148;2022-12-07T05:50:07;14.3;;;12.7;;
38220;SDS011;24023;51.280;7.148;2022-12-07T05:55:07;16.2;;;14.4;;
38220;SDS011;24023;51.280;7.148;2022-12-07T06:00:11;16.2;;;14.4;;
38220;SDS011;24023;51.280;7.148;2022-12-07T06:05:07;17.0;;;15.3;;
38220;SDS011;24023;51.280;7.148;2022-12-07T06:10:08;17.0;;;15.3;;
38220;SDS011;24023;51.280;7.148;2022-12-07T06:15:08;17.0;;;15.3;;
38220;SDS011;24023;51.280;7.148;2022-12-07T06:20:08;16.4;;;14.7;;
38220;SDS011;24023;51.280;7.148;2022-12-07T06:25:07;16.4;;;14.7;;
38220;SDS011;24023;51.280;7.148;2022-12-07T06:30:09;17.0;;;15.2;;
38220;SDS011;24023;51.280;7.148;2022-12-07T06:35:06;17.0;;;15.2;;
38220;SDS011;24023;51.280;7.148;2022-12-07T06:40:08;17.0;;;15.2;;
38220;SDS011;24023;51.280;7.148;2022-12-07T06:45:09;13.7;;;12.2;;
38220;SDS011;24023;51.280;7.148;2022-12-07T06:50:08;13.7;;;12.2;;
38220;SDS011;24023;51.280;7.148;2022-12-07T06:55:06;12.5;;;11.2;;
38220;SDS011;24023;51.280;7.148;2022-12-07T07:00:11;12.5;;;11.2;;
38220;SDS011;24023;51.280;7.148;2022-12-07T07:05:06;12.5;;;11.2;;
38220;SDS011;24023;51.280;7.148;2022-12-07T07:10:08;13.2;;;11.8;;
38220;SDS011;24023;51.280;7.148;2022-12-07T07:15:07;15.8;;;13.1;;
38220;SDS011;24023;51.280;7.148;2022-12-07T07:20:08;15.8;;;13.1;;
38220;SDS011;24023;51.280;7.148;2022-12-07T07:25:06;12.0;;;10.7;;
38220;SDS011;24023;51.280;7.148;2022-12-07T07:30:09;12.0;;;10.7;;
38220;SDS011;24023;51.280;7.148;2022-12-07T07:35:06;14.1;;;12.1;;
38220;SDS011;24023;51.280;7.148;2022-12-07T07:40:07;14.1;;;12.1;;
38220;SDS011;24023;51.280;7.148;2022-12-07T07:45:10;12.3;;;11.0;;
38220;SDS011;24023;51.280;7.148;2022-12-07T07:50:07;12.3;;;11.0;;
38220;SDS011;24023;51.280;7.148;2022-12-07T07:55:07;13.6;;;12.0;;
38220;SDS011;24023;51.280;7.148;2022-12-07T08:00:11;13.6;;;12.0;;
38220;SDS011;24023;51.280;7.148;2022-12-07T08:05:06;13.6;;;12.0;;
38220;SDS011;24023;51.280;7.148;2022-12-07T08:10:08;14.4;;;12.0;;
38220;SDS011;24023;51.280;7.148;2022-12-07T08:15:07;14.4;;;12.0;;
38220;SDS011;24023;51.280;7.148;2022-12-07T08:20:07;14.9;;;12.8;;
38220;SDS011;24023;51.280;7.148;2022-12-07T08:25:06;14.9;;;12.8;;
38220;SDS011;24023;51.280;7.148;2022-12-07T08:30:09;14.9;;;12.8;;
38220;SDS011;24023;51.280;7.148;2022-12-07T08:35:06;18.4;;;11.3;;
38220;SDS011;24023;51.280;7.148;2022-12-07T08:40:08;18.4;;;11.3;;
38220;SDS011;24023;51.280;7.148;2022-12-07T08:45:10;14.6;;;12.5;;
38220;SDS011;24023;51.280;7.148;2022-12-07T08:50:07;14.6;;;12.5;;
38220;SDS011;24023;51.280;7.148;2022-12-07T08:55:06;14.6;;;13.1;;
38220;SDS011;24023;51.280;7.148;2022-12-07T09:00:11;14.6;;;13.1;;
38220;SDS011;24023;51.280;7.148;2022-12-07T09:05:07;12.5;;;10.8;;
38220;SDS011;24023;51.280;7.148;2022-12-07T09:10:07;12.5;;;10.8;;
38220;SDS011;24023;51.280;7.148;2022-12-07T09:15:11;12.1;;;10.0;;
38220;SDS011;24023;51.280;7.148;2022-12-07T09:20:07;12.1;;;10.0;;
38220;SDS011;24023;51.280;7.148;2022-12-07T09:25:07;12.1;;;10.0;;
38220;SDS011;24023;51.280;7.148;2022-12-07T09:30:08;10.9;;;9.0;;
38220;SDS011;24023;51.280;7.148;2022-12-07T09:35:07;10.9;;;9.0;;
38220;SDS011;24023;51.280;7.148;2022-12-07T09:40:08;10.9;;;9.2;;
38220;SDS011;24023;51.280;7.148;2022-12-07T09:45:12;10.9;;;9.2;;
38220;SDS011;24023;51.280;7.148;2022-12-07T09:50:12;10.9;;;8.3;;
38220;SDS011;24023;51.280;7.148;2022-12-07T09:55:09;10.9;;;8.3;;
38220;SDS011;24023;51.280;7.148;2022-12-07T10:00:12;10.9;;;8.3;;
38220;SDS011;24023;51.280;7.148;2022-12-07T10:05:07;11.6;;;9.5;;
38220;SDS011;24023;51.280;7.148;2022-12-07T10:10:14;11.6;;;9.5;;
38220;SDS011;24023;51.280;7.148;2022-12-07T10:15:07;10.6;;;8.9;;
38220;SDS011;24023;51.280;7.148;2022-12-07T10:20:13;10.6;;;8.9;;
38220;SDS011;24023;51.280;7.148;2022-12-07T10:25:08;10.6;;;8.9;;
38220;SDS011;24023;51.280;7.148;2022-12-07T10:30:12;10.1;;;8.8;;
38220;SDS011;24023;51.280;7.148;2022-12-07T10:35:18;13.6;;;10.9;;
38220;SDS011;24023;51.280;7.148;2022-12-07T10:40:23;13.6;;;10.9;;
38220;SDS011;24023;51.280;7.148;2022-12-07T10:45:13;14.0;;;12.5;;
38220;SDS011;24023;51.280;7.148;2022-12-07T10:50:13;14.0;;;12.5;;
38220;SDS011;24023;51.280;7.148;2022-12-07T10:55:11;14.6;;;12.8;;
38220;SDS011;24023;51.280;7.148;2022-12-07T11:00:13;14.6;;;12.8;;
38220;SDS011;24023;51.280;7.148;2022-12-07T11:05:10;12.2;;;10.9;;
38220;SDS011;24023;51.280;7.148;2022-12-07T11:10:08;12.2;;;10.9;;
38220;SDS011;24023;51.280;7.148;2022-12-07T11:15:11;13.4;;;10.8;;
38220;SDS011;24023;51.280;7.148;2022-12-07T11:20:12;13.4;;;10.8;;
38220;SDS011;24023;51.280;7.148;2022-12-07T11:25:14;11.6;;;10.4;;
38220;SDS011;24023;51.280;7.148;2022-12-07T11:30:12;11.6;;;10.4;;
38220;SDS011;24023;51.280;7.148;2022-12-07T11:35:08;9.5;;;7.8;;
38220;SDS011;24023;51.280;7.148;2022-12-07T11:40:13;9.5;;;7.8;;
38220;SDS011;24023;51.280;7.148;2022-12-07T11:45:13;8.7;;;6.6;;
38220;SDS011;24023;51.280;7.148;2022-12-07T11:50:13;8.7;;;6.6;;
38220;SDS011;24023;51.280;7.148;2022-12-07T11:55:12;8.7;;;6.6;;
38220;SDS011;24023;51.280;7.148;2022-12-07T12:00:12;8.2;;;5.6;;
38220;SDS011;24023;51.280;7.148;2022-12-07T12:05:13;8.2;;;5.6;;
38220;SDS011;24023;51.280;7.148;2022-12-07T12:10:14;7.8;;;6.1;;
38220;SDS011;24023;51.280;7.148;2022-12-07T12:15:13;7.8;;;6.1;;
38220;SDS011;24023;51.280;7.148;2022-12-07T12:20:13;7.0;;;5.2;;
38220;SDS011;24023;51.280;7.148;2022-12-07T12:25:07;7.0;;;5.2;;
38220;SDS011;24023;51.280;7.148;2022-12-07T12:30:23;7.0;;;5.2;;
38220;SDS011;24023;51.280;7.148;2022-12-07T12:35:27;6.9;;;5.2;;
38220;SDS011;24023;51.280;7.148;2022-12-07T12:40:40;6.9;;;5.2;;
38220;SDS011;24023;51.280;7.148;2022-12-07T12:45:24;6.2;;;4.4;;
38220;SDS011;24023;51.280;7.148;2022-12-07T12:50:15;6.2;;;4.4;;
38220;SDS011;24023;51.280;7.148;2022-12-07T12:55:12;6.2;;;4.4;;
38220;SDS011;24023;51.280;7.148;2022-12-07T13:00:15;4.9;;;4.0;;
38220;SDS011;24023;51.280;7.148;2022-12-07T13:05:15;4.9;;;4.0;;
38220;SDS011;24023;51.280;7.148;2022-12-07T13:10:18;6.3;;;3.7;;
38220;SDS011;24023;51.280;7.148;2022-12-07T13:15:28;6.3;;;3.7;;
38220;SDS011;24023;51.280;7.148;2022-12-07T13:20:08;6.3;;;3.7;;
38220;SDS011;24023;51.280;7.148;2022-12-07T13:25:07;5.4;;;2.9;;
38220;SDS011;24023;51.280;7.148;2022-12-07T13:30:12;5.4;;;2.9;;
38220;SDS011;24023;51.280;7.148;2022-12-07T13:35:26;6.7;;;2.7;;
38220;SDS011;24023;51.280;7.148;2022-12-07T13:40:15;6.7;;;2.7;;
38220;SDS011;24023;51.280;7.148;2022-12-07T13:45:20;6.7;;;2.7;;
38220;SDS011;24023;51.280;7.148;2022-12-07T13:50:21;5.5;;;2.4;;
38220;SDS011;24023;51.280;7.148;2022-12-07T13:55:13;3.8;;;1.4;;
38220;SDS011;24023;51.280;7.148;2022-12-07T14:00:14;3.8;;;1.4;;
38220;SDS011;24023;51.280;7.148;2022-12-07T14:05:07;3.5;;;1.4;;
38220;SDS011;24023;51.280;7.148;2022-12-07T14:10:22;3.5;;;1.4;;
38220;SDS011;24023;51.280;7.148;2022-12-07T14:15:15;3.5;;;1.4;;
38220;SDS011;24023;51.280;7.148;2022-12-07T14:20:28;3.8;;;1.4;;
38220;SDS011;24023;51.280;7.148;2022-12-07T14:25:16;3.8;;;1.4;;
38220;SDS011;24023;51.280;7.148;2022-12-07T14:30:14;3.2;;;1.4;;
38220;SDS011;24023;51.280;7.148;2022-12-07T14:35:09;3.2;;;1.4;;
38220;SDS011;24023;51.280;7.148;2022-12-07T14:40:12;3.6;;;1.3;;
38220;SDS011;24023;51.280;7.148;2022-12-07T14:45:13;3.6;;;1.3;;
38220;SDS011;24023;51.280;7.148;2022-12-07T14:50:07;3.6;;;1.3;;
38220;SDS011;24023;51.280;7.148;2022-12-07T14:55:11;3.0;;;1.4;;
38220;SDS011;24023;51.280;7.148;2022-12-07T15:00:13;3.0;;;1.4;;
38220;SDS011;24023;51.280;7.148;2022-12-07T15:05:06;4.6;;;1.6;;
38220;SDS011;24023;51.280;7.148;2022-12-07T15:10:11;4.6;;;1.6;;
38220;SDS011;24023;51.280;7.148;2022-12-07T15:15:08;3.0;;;1.5;;
38220;SDS011;24023;51.280;7.148;2022-12-07T15:20:09;3.0;;;1.5;;
38220;SDS011;24023;51.280;7.148;2022-12-07T15:25:08;3.4;;;1.2;;
38220;SDS011;24023;51.280;7.148;2022-12-07T15:30:09;3.4;;;1.2;;
38220;SDS011;24023;51.280;7.148;2022-12-07T15:35:06;3.4;;;1.2;;
38220;SDS011;24023;51.280;7.148;2022-12-07T15:40:08;3.1;;;1.5;;
38220;SDS011;24023;51.280;7.148;2022-12-07T15:45:10;3.1;;;1.5;;
38220;SDS011;24023;51.280;7.148;2022-12-07T15:50:08;4.4;;;1.7;;
38220;SDS011;24023;51.280;7.148;2022-12-07T15:55:06;4.4;;;1.7;;
38220;SDS011;24023;51.280;7.148;2022-12-07T16:00:11;4.9;;;1.3;;
38220;SDS011;24023;51.280;7.148;2022-12-07T16:05:06;4.9;;;1.3;;
38220;SDS011;24023;51.280;7.148;2022-12-07T16:10:08;4.9;;;1.3;;
38220;SDS011;24023;51.280;7.148;2022-12-07T16:15:07;4.4;;;1.6;;
38220;SDS011;24023;51.280;7.148;2022-12-07T16:20:08;4.4;;;1.6;;
38220;SDS011;24023;51.280;7.148;2022-12-07T16:25:06;3.3;;;1.3;;
38220;SDS011;24023;51.280;7.148;2022-12-07T16:30:11;3.3;;;1.3;;
38220;SDS011;24023;51.280;7.148;2022-12-07T16:35:07;3.3;;;1.3;;
38220;SDS011;24023;51.280;7.148;2022-12-07T16:40:08;4.3;;;1.5;;
38220;SDS011;24023;51.280;7.148;2022-12-07T16:45:09;2.6;;;1.6;;
38220;SDS011;24023;51.280;7.148;2022-12-07T16:50:08;2.6;;;1.6;;
38220;SDS011;24023;51.280;7.148;2022-12-07T16:55:07;4.2;;;1.6;;
38220;SDS011;24023;51.280;7.148;2022-12-07T17:00:13;4.2;;;1.6;;
38220;SDS011;24023;51.280;7.148;2022-12-07T17:05:06;3.6;;;2.1;;
38220;SDS011;24023;51.280;7.148;2022-12-07T17:10:08;3.6;;;2.1;;
38220;SDS011;24023;51.280;7.148;2022-12-07T17:15:22;5.3;;;2.6;;
38220;SDS011;24023;51.280;7.148;2022-12-07T17:20:08;5.3;;;2.6;;
38220;SDS011;24023;51.280;7.148;2022-12-07T17:25:07;5.2;;;2.7;;
38220;SDS011;24023;51.280;7.148;2022-12-07T17:30:09;5.2;;;2.7;;
38220;SDS011;24023;51.280;7.148;2022-12-07T17:35:07;5.2;;;2.7;;
38220;SDS011;24023;51.280;7.148;2022-12-07T17:40:09;4.2;;;2.6;;
38220;SDS011;24023;51.280;7.148;2022-12-07T17:45:11;4.2;;;2.6;;
38220;SDS011;24023;51.280;7.148;2022-12-07T17:50:08;5.7;;;3.3;;
38220;SDS011;24023;51.280;7.148;2022-12-07T17:55:06;5.7;;;3.3;;
38220;SDS011;24023;51.280;7.148;2022-12-07T18:00:11;5.9;;;4.3;;
38220;SDS011;24023;51.280;7.148;2022-12-07T18:05:07;5.9;;;4.3;;
38220;SDS011;24023;51.280;7.148;2022-12-07T18:10:08;5.9;;;4.3;;
38220;SDS011;24023;51.280;7.148;2022-12-07T18:15:08;8.0;;;5.1;;
38220;SDS011;24023;51.280;7.148;2022-12-07T18:20:08;8.0;;;5.1;;
38220;SDS011;24023;51.280;7.148;2022-12-07T18:25:06;7.0;;;4.7;;
38220;SDS011;24023;51.280;7.148;2022-12-07T18:30:11;7.0;;;4.7;;
38220;SDS011;24023;51.280;7.148;2022-12-07T18:35:07;9.6;;;7.4;;
38220;SDS011;24023;51.280;7.148;2022-12-07T18:40:08;9.6;;;7.4;;
38220;SDS011;24023;51.280;7.148;2022-12-07T18:45:09;6.4;;;4.7;;
38220;SDS011;24023;51.280;7.148;2022-12-07T18:50:08;6.4;;;4.7;;
38220;SDS011;24023;51.280;7.148;2022-12-07T18:55:07;5.6;;;4.4;;
38220;SDS011;24023;51.280;7.148;2022-12-07T19:00:11;5.6;;;4.4;;
38220;SDS011;24023;51.280;7.148;2022-12-07T19:05:06;5.6;;;4.4;;
38220;SDS011;24023;51.280;7.148;2022-12-07T19:10:09;6.9;;;4.9;;
38220;SDS011;24023;51.280;7.148;2022-12-07T19:15:07;6.9;;;4.9;;
38220;SDS011;24023;51.280;7.148;2022-12-07T19:20:08;5.9;;;4.7;;
38220;SDS011;24023;51.280;7.148;2022-12-07T19:25:06;5.9;;;4.7;;
38220;SDS011;24023;51.280;7.148;2022-12-07T19:30:11;6.8;;;5.5;;
38220;SDS011;24023;51.280;7.148;2022-12-07T19:35:07;6.8;;;5.5;;
38220;SDS011;24023;51.280;7.148;2022-12-07T19:40:08;6.8;;;5.5;;
38220;SDS011;24023;51.280;7.148;2022-12-07T19:45:10;6.8;;;6.1;;
38220;SDS011;24023;51.280;7.148;2022-12-07T19:50:08;6.8;;;6.1;;
38220;SDS011;24023;51.280;7.148;2022-12-07T19:55:06;7.5;;;6.8;;
38220;SDS011;24023;51.280;7.148;2022-12-07T20:00:12;7.5;;;6.8;;
38220;SDS011;24023;51.280;7.148;2022-12-07T20:05:06;7.5;;;6.8;;
38220;SDS011;24023;51.280;7.148;2022-12-07T20:10:08;7.4;;;6.7;;
38220;SDS011;24023;51.280;7.148;2022-12-07T20:15:08;7.4;;;6.7;;
38220;SDS011;24023;51.280;7.148;2022-12-07T20:20:08;8.3;;;7.1;;
38220;SDS011;24023;51.280;7.148;2022-12-07T20:25:06;8.3;;;7.1;;
38220;SDS011;24023;51.280;7.148;2022-12-07T20:30:09;8.3;;;7.1;;
38220;SDS011;24023;51.280;7.148;2022-12-07T20:35:06;9.4;;;7.7;;
38220;SDS011;24023;51.280;7.148;2022-12-07T20:40:08;9.4;;;7.7;;
38220;SDS011;24023;51.280;7.148;2022-12-07T20:45:11;9.8;;;8.8;;
38220;SDS011;24023;51.280;7.148;2022-12-07T20:50:07;9.8;;;8.8;;
38220;SDS011;24023;51.280;7.148;2022-12-07T20:55:06;9.8;;;8.8;;
38220;SDS011;24023;51.280;7.148;2022-12-07T21:00:11;9.7;;;8.8;;
38220;SDS011;24023;51.280;7.148;2022-12-07T21:05:06;9.7;;;8.8;;
38220;SDS011;24023;51.280;7.148;2022-12-07T21:10:07;10.9;;;9.1;;
38220;SDS011;24023;51.280;7.148;2022-12-07T21:15:07;10.9;;;9.1;;
38220;SDS011;24023;51.280;7.148;2022-12-07T21:20:07;10.5;;;8.7;;
38220;SDS011;24023;51.280;7.148;2022-12-07T21:25:07;10.5;;;8.7;;
38220;SDS011;24023;51.280;7.148;2022-12-07T21:30:09;10.5;;;8.7;;
38220;SDS011;24023;51.280;7.148;2022-12-07T21:35:07;10.5;;;9.4;;
38220;SDS011;24023;51.280;7.148;2022-12-07T21:40:08;10.5;;;9.4;;
38220;SDS011;24023;51.280;7.148;2022-12-07T21:45:10;10.9;;;9.7;;
38220;SDS011;24023;51.280;7.148;2022-12-07T21:50:08;10.9;;;9.7;;
38220;SDS011;24023;51.280;7.148;2022-12-07T21:55:06;10.9;;;9.7;;
38220;SDS011;24023;51.280;7.148;2022-12-07T22:00:11;11.5;;;9.8;;
38220;SDS011;24023;51.280;7.148;2022-12-07T22:05:06;11.5;;;9.8;;
38220;SDS011;24023;51.280;7.148;2022-12-07T22:10:08;11.0;;;9.9;;
38220;SDS011;24023;51.280;7.148;2022-12-07T22:15:07;11.0;;;9.9;;
38220;SDS011;24023;51.280;7.148;2022-12-07T22:20:08;11.0;;;9.9;;
38220;SDS011;24023;51.280;7.148;2022-12-07T22:25:06;13.0;;;11.2;;
38220;SDS011;24023;51.280;7.148;2022-12-07T22:30:10;13.0;;;11.2;;
38220;SDS011;24023;51.280;7.148;2022-12-07T22:35:06;11.9;;;10.6;;
38220;SDS011;24023;51.280;7.148;2022-12-07T22:40:07;11.9;;;10.6;;
38220;SDS011;24023;51.280;7.148;2022-12-07T22:45:09;12.2;;;10.9;;
38220;SDS011;24023;51.280;7.148;2022-12-07T22:50:08;12.2;;;10.9;;
38220;SDS011;24023;51.280;7.148;2022-12-07T22:55:06;12.2;;;10.9;;
38220;SDS011;24023;51.280;7.148;2022-12-07T23:00:14;12.4;;;11.1;;
38220;SDS011;24023;51.280;7.148;2022-12-07T23:05:08;12.4;;;11.1;;
38220;SDS011;24023;51.280;7.148;2022-12-07T23:10:08;12.4;;;11.1;;
38220;SDS011;24023;51.280;7.148;2022-12-07T23:15:08;12.4;;;11.1;;
38220;SDS011;24023;51.280;7.148;2022-12-07T23:20:08;12.4;;;11.1;;
38220;SDS011;24023;51.280;7.148;2022-12-07T23:25:06;11.6;;;10.5;;
38220;SDS011;24023;51.280;7.148;2022-12-07T23:30:09;11.6;;;10.5;;
38220;SDS011;24023;51.280;7.148;2022-12-07T23:35:06;12.5;;;10.9;;
38220;SDS011;24023;51.280;7.148;2022-12-07T23:40:08;12.5;;;10.9;;
38220;SDS011;24023;51.280;7.148;2022-12-07T23:45:11;12.5;;;10.9;;
38220;SDS011;24023;51.280;7.148;2022-12-07T23:50:08;11.4;;;10.2;;
38220;SDS011;24023;51.280;7.148;2022-12-07T23:55:07;11.4;;;10.2;;
